Time;durP1;ratioP1;P1;durP2;ratioP2;P2;SDS_P1;SDS_P2;PMS_P1;PMS_P2;Temp;Humidity;BMP_temperature;BMP_pressure;BME280_temperature;BME280_humidity;BME280_pressure;Samples;Min_cycle;Max_cycle;Signal;HPM_P1;HPM_P2
2021/06/24 00:01:34;;;;;;;28.05;8.77;;;;;;;26.72;51.23;99596.63;5037817;28;20032;-77
2021/06/24 00:03:59;;;;;;;31.85;8.20;;;;;;;26.76;50.84;99594.47;5043262;28;20128;-77
2021/06/24 00:06:25;;;;;;;26.02;8.38;;;;;;;26.73;50.63;99603.97;5039369;28;20104;-77
2021/06/24 00:08:50;;;;;;;33.47;7.95;;;;;;;26.48;51.13;99593.03;5038228;28;20107;-76
2021/06/24 00:11:16;;;;;;;24.73;9.07;;;;;;;26.36;51.64;99591.66;5042887;28;20044;-76
2021/06/24 00:13:42;;;;;;;36.80;12.15;;;;;;;26.42;50.99;99583.34;5038201;28;20025;-77
2021/06/24 00:16:08;;;;;;;35.63;8.90;;;;;;;26.51;50.57;99585.63;5041451;28;20017;-77
2021/06/24 00:18:34;;;;;;;29.23;8.40;;;;;;;26.34;50.78;99582.69;5039193;28;20350;-76
2021/06/24 00:21:00;;;;;;;32.10;8.10;;;;;;;26.35;50.45;99585.09;5034699;28;20136;-76
2021/06/24 00:23:25;;;;;;;34.33;10.15;;;;;;;26.34;51.87;99589.22;5047447;28;20549;-76
2021/06/24 00:25:52;;;;;;;29.55;8.48;;;;;;;26.47;51.02;99589.38;5047291;28;20030;-76
2021/06/24 00:28:18;;;;;;;31.90;8.95;;;;;;;26.48;50.50;99598.78;5042636;28;20029;-77
2021/06/24 00:30:47;;;;;;;27.77;9.07;;;;;;;26.40;50.56;99606.72;5049073;28;20032;-76
2021/06/24 00:33:14;;;;;;;30.00;9.38;;;;;;;26.38;50.89;99609.22;5051268;28;20566;-77
2021/06/24 00:35:40;;;;;;;30.60;8.65;;;;;;;26.41;50.62;99608.34;5051040;28;20036;-77
2021/06/24 00:38:06;;;;;;;31.33;9.52;;;;;;;26.51;50.53;99597.09;5045291;28;20029;-76
2021/06/24 00:40:34;;;;;;;32.67;9.68;;;;;;;26.55;50.54;99594.97;5036237;28;20032;-77
2021/06/24 00:43:01;;;;;;;33.53;8.93;;;;;;;26.58;50.13;99594.09;5033899;28;20041;-77
2021/06/24 00:45:27;;;;;;;32.33;10.85;;;;;;;26.65;50.10;99593.13;5036145;28;20021;-77
2021/06/24 00:47:52;;;;;;;31.63;8.73;;;;;;;26.65;50.41;99588.16;5041122;28;20093;-77
2021/06/24 00:50:18;;;;;;;26.48;8.80;;;;;;;26.66;50.27;99580.38;5041134;28;20492;-77
2021/06/24 00:52:44;;;;;;;22.88;8.00;;;;;;;26.74;50.21;99579.78;5044591;28;20032;-77
2021/06/24 00:55:10;;;;;;;28.27;8.88;;;;;;;26.80;50.08;99582.13;5047440;28;20064;-77
2021/06/24 00:57:36;;;;;;;22.98;8.80;;;;;;;26.71;49.54;99586.41;5035084;28;20119;-77
2021/06/24 01:00:04;;;;;;;25.63;8.48;;;;;;;26.55;49.49;99592.09;5046923;28;20040;-78
2021/06/24 01:02:30;;;;;;;29.10;9.32;;;;;;;26.53;49.73;99594.59;5048107;28;20459;-77
2021/06/24 01:04:56;;;;;;;28.17;8.88;;;;;;;26.58;48.98;99592.00;5042887;28;20064;-77
2021/06/24 01:07:23;;;;;;;36.22;8.05;;;;;;;26.58;49.28;99597.75;5039371;28;20052;-77
2021/06/24 01:09:49;;;;;;;27.30;8.07;;;;;;;26.65;48.99;99581.66;5032284;28;20495;-77
2021/06/24 01:12:16;;;;;;;28.48;9.25;;;;;;;26.54;48.91;99587.59;5048812;28;20029;-77
2021/06/24 01:14:42;;;;;;;26.27;8.40;;;;;;;26.57;48.79;99586.72;5040673;28;20513;-78
2021/06/24 01:17:07;;;;;;;28.77;9.90;;;;;;;26.72;48.38;99593.75;5038481;28;20025;-77
2021/06/24 01:19:33;;;;;;;29.92;9.60;;;;;;;26.25;50.47;99591.06;5043768;28;20477;-77
2021/06/24 01:21:59;;;;;;;19.85;8.02;;;;;;;26.23;50.84;99585.78;5045578;28;20083;-77
2021/06/24 01:24:25;;;;;;;28.88;9.48;;;;;;;26.35;51.44;99585.09;5032028;28;20068;-77
2021/06/24 01:26:51;;;;;;;28.25;8.20;;;;;;;26.23;51.47;99590.72;5048470;28;20082;-77
2021/06/24 01:29:17;;;;;;;23.80;8.50;;;;;;;26.20;51.90;99587.47;5046893;28;20038;-77
2021/06/24 01:31:43;;;;;;;29.58;9.68;;;;;;;26.03;51.39;99588.59;5046654;28;20045;-77
2021/06/24 01:34:10;;;;;;;34.45;11.00;;;;;;;25.96;52.21;99597.34;5041816;28;20033;-77
2021/06/24 01:36:37;;;;;;;30.27;8.52;;;;;;;25.88;52.02;99606.06;5049956;28;20033;-77
2021/06/24 01:39:05;;;;;;;32.08;9.55;;;;;;;25.93;51.94;99605.53;5048876;28;20037;-77
2021/06/24 01:41:30;;;;;;;27.55;9.20;;;;;;;25.79;52.65;99611.53;5043699;28;20493;-77
2021/06/24 01:43:56;;;;;;;30.17;9.82;;;;;;;25.78;52.66;99598.47;5044383;28;20028;-77
2021/06/24 01:46:22;;;;;;;32.80;10.50;;;;;;;25.72;53.42;99600.25;5034106;28;20021;-77
2021/06/24 01:48:48;;;;;;;29.60;10.48;;;;;;;25.70;53.99;99599.84;5039465;28;20029;-77
2021/06/24 01:51:14;;;;;;;31.35;10.75;;;;;;;25.69;54.43;99612.53;5031821;28;20168;-77
2021/06/24 01:53:39;;;;;;;23.52;9.68;;;;;;;25.66;54.91;99597.06;5040209;28;20084;-77
2021/06/24 01:56:05;;;;;;;39.33;11.70;;;;;;;25.41;55.69;99598.28;5045947;28;20025;-77
2021/06/24 01:58:30;;;;;;;34.25;11.10;;;;;;;25.22;56.12;99602.66;5043717;28;20041;-77
2021/06/24 02:01:00;;;;;;;27.67;10.23;;;;;;;25.09;56.45;99600.38;5043656;28;20032;-77
2021/06/24 02:03:26;;;;;;;25.90;10.07;;;;;;;25.04;56.54;99605.78;5050083;28;20036;-77
2021/06/24 02:05:57;;;;;;;30.15;10.82;;;;;;;25.00;57.02;99603.00;5049835;28;20033;-77
2021/06/24 02:08:25;;;;;;;39.60;11.77;;;;;;;25.01;56.85;99603.78;5046443;28;20059;-77
2021/06/24 02:10:53;;;;;;;41.30;11.40;;;;;;;25.02;56.53;99594.78;5041689;28;20112;-77
2021/06/24 02:13:18;;;;;;;36.22;11.23;;;;;;;24.99;56.70;99592.78;5039760;28;20088;-77
2021/06/24 02:15:44;;;;;;;41.75;11.32;;;;;;;24.96;56.38;99590.78;5039155;28;20029;-77
2021/06/24 02:18:10;;;;;;;29.50;10.60;;;;;;;24.91;56.52;99597.78;5039677;28;20495;-77
2021/06/24 02:20:37;;;;;;;38.47;10.82;;;;;;;24.81;57.14;99608.16;5033649;28;20519;-77
2021/06/24 02:23:02;;;;;;;36.05;10.23;;;;;;;24.83;57.03;99598.31;5040827;28;20498;-77
2021/06/24 02:25:28;;;;;;;34.28;11.60;;;;;;;24.74;57.03;99599.66;5039509;28;20013;-77
2021/06/24 02:27:55;;;;;;;40.97;10.90;;;;;;;24.81;56.50;99593.06;5041844;28;20125;-77
2021/06/24 02:30:22;;;;;;;37.55;10.98;;;;;;;24.89;56.08;99603.13;5037572;28;20037;-77
2021/06/24 02:32:48;;;;;;;31.98;11.40;;;;;;;24.87;56.13;99604.81;5047850;28;20029;-77
2021/06/24 02:35:15;;;;;;;29.75;9.35;;;;;;;24.80;56.54;99600.81;5049656;28;20033;-78
2021/06/24 02:37:43;;;;;;;33.92;10.15;;;;;;;24.82;56.37;99603.25;5042060;28;20427;-77
2021/06/24 02:40:11;;;;;;;33.97;10.98;;;;;;;24.80;55.91;99611.47;5048374;28;20041;-77
2021/06/24 02:42:38;;;;;;;38.45;9.85;;;;;;;24.74;55.71;99601.69;5037937;28;20061;-78
2021/06/24 02:45:05;;;;;;;43.33;8.77;;;;;;;24.62;55.51;99601.03;5046980;28;20021;-77
2021/06/24 02:47:31;;;;;;;37.90;10.35;;;;;;;24.57;55.54;99600.69;5044396;28;20414;-77
2021/06/24 02:49:56;;;;;;;25.58;9.98;;;;;;;24.54;55.99;99608.91;5049378;28;20031;-77
2021/06/24 02:52:22;;;;;;;32.80;11.25;;;;;;;24.41;56.53;99613.56;5050393;28;20036;-77
2021/06/24 02:54:50;;;;;;;31.20;9.50;;;;;;;24.58;56.43;99617.44;5042988;28;20036;-77
2021/06/24 02:57:16;;;;;;;34.65;11.32;;;;;;;24.60;56.10;99619.84;5050338;28;20095;-77
2021/06/24 02:59:42;;;;;;;37.70;10.07;;;;;;;24.59;55.69;99606.78;5047688;28;20028;-75
2021/06/24 03:02:07;;;;;;;42.72;10.05;;;;;;;24.50;55.99;99610.19;5050236;28;20416;-74
2021/06/24 03:04:33;;;;;;;31.17;10.35;;;;;;;24.45;56.90;99602.09;5047566;28;20052;-72
2021/06/24 03:07:01;;;;;;;42.40;10.68;;;;;;;24.61;56.23;99604.31;5047943;28;20014;-71
2021/06/24 03:09:27;;;;;;;36.13;11.52;;;;;;;24.72;55.61;99607.84;5053137;28;20032;-80
2021/06/24 03:11:52;;;;;;;38.58;11.57;;;;;;;24.69;55.93;99605.84;5050054;28;20029;-83
2021/06/24 03:14:18;;;;;;;61.38;23.83;;;;;;;24.72;55.50;99604.19;5041325;28;20082;-76
2021/06/24 03:16:43;;;;;;;57.75;26.20;;;;;;;24.64;55.64;99612.84;5048067;28;20031;-80
2021/06/24 03:19:12;;;;;;;54.15;26.40;;;;;;;24.55;56.34;99609.69;5048893;28;20049;-72
2021/06/24 03:21:39;;;;;;;60.72;22.55;;;;;;;24.53;56.14;99610.13;5043415;28;20418;-73
2021/06/24 03:24:05;;;;;;;60.10;20.95;;;;;;;24.45;56.37;99602.88;5040126;28;20029;-73
2021/06/24 03:26:30;;;;;;;48.90;18.42;;;;;;;24.59;56.31;99601.06;5037333;28;20034;-76
2021/06/24 03:28:56;;;;;;;53.00;16.65;;;;;;;24.65;55.81;99605.88;5035268;28;20033;-78
2021/06/24 03:31:22;;;;;;;65.30;17.73;;;;;;;24.67;56.47;99611.19;5038761;28;20033;-75
2021/06/24 03:33:47;;;;;;;50.85;18.48;;;;;;;24.84;56.05;99617.94;5032899;28;20152;-78
2021/06/24 03:36:13;;;;;;;56.53;13.23;;;;;;;25.01;55.47;99613.19;5035786;28;20112;-80
2021/06/24 03:38:38;;;;;;;34.33;11.13;;;;;;;25.10;54.88;99612.66;5035007;28;20066;-75
2021/06/24 03:41:04;;;;;;;34.45;12.60;;;;;;;25.12;55.07;99609.38;5039298;28;20033;-84
2021/06/24 03:43:30;;;;;;;41.55;12.95;;;;;;;25.31;54.77;99604.97;5048791;28;20094;-74
2021/06/24 03:45:55;;;;;;;38.22;12.68;;;;;;;25.48;54.18;99609.59;5046366;28;20052;-85
2021/06/24 03:48:21;;;;;;;35.90;9.90;;;;;;;25.58;53.73;99607.00;5043878;28;20033;-75
2021/06/24 03:50:47;;;;;;;31.73;11.68;;;;;;;25.71;53.46;99607.22;5039101;28;20114;-77
2021/06/24 03:53:12;;;;;;;35.28;10.93;;;;;;;25.70;53.53;99602.69;5036297;28;20055;-79
2021/06/24 03:55:41;;;;;;;29.90;11.05;;;;;;;25.64;53.97;99608.94;5042293;28;20094;-78
2021/06/24 03:58:07;;;;;;;30.48;10.20;;;;;;;25.60;54.05;99616.78;5043850;28;20033;-87
2021/06/24 04:00:39;;;;;;;33.90;10.27;;;;;;;25.64;54.34;99629.00;5033594;28;20494;-77
2021/06/24 04:03:04;;;;;;;32.42;10.10;;;;;;;25.68;54.03;99620.34;5045911;28;20510;-77
2021/06/24 04:05:31;;;;;;;33.70;10.35;;;;;;;25.61;54.30;99624.13;5031179;28;20033;-88
2021/06/24 04:07:58;;;;;;;34.90;10.93;;;;;;;25.54;54.67;99606.28;5030580;28;20040;-76
2021/06/24 04:10:24;;;;;;;36.83;12.38;;;;;;;25.58;54.51;99610.69;5046969;28;20021;-74
2021/06/24 04:12:50;;;;;;;37.13;11.00;;;;;;;25.59;54.99;99603.72;5037647;28;20152;-82
2021/06/24 04:15:16;;;;;;;41.85;11.52;;;;;;;25.74;54.00;99609.19;5035715;28;20564;-74
2021/06/24 04:17:41;;;;;;;38.90;9.95;;;;;;;25.86;53.09;99610.59;5044353;28;20033;-81
2021/06/24 04:20:07;;;;;;;41.65;11.18;;;;;;;25.91;52.76;99602.31;5035798;28;20095;-74
2021/06/24 04:22:33;;;;;;;40.83;10.60;;;;;;;26.02;53.18;99612.78;5036426;28;20479;-74
2021/06/24 04:24:58;;;;;;;37.70;8.07;;;;;;;26.02;52.57;99601.31;5037130;28;20028;-76
2021/06/24 04:27:24;;;;;;;33.08;9.85;;;;;;;26.11;51.65;99603.59;5041751;28;20028;-74
2021/06/24 04:29:49;;;;;;;34.75;9.60;;;;;;;26.17;52.12;99599.78;5037830;28;20109;-79
2021/06/24 04:32:15;;;;;;;38.25;10.02;;;;;;;26.32;51.83;99596.69;5036724;28;20028;-82
2021/06/24 04:34:40;;;;;;;34.42;10.82;;;;;;;26.41;51.05;99587.47;5036966;28;20030;-74
2021/06/24 04:37:06;;;;;;;41.75;10.18;;;;;;;26.43;51.23;99585.78;5040747;28;20108;-77
2021/06/24 04:39:33;;;;;;;35.33;10.75;;;;;;;26.39;50.70;99581.38;5045911;28;20095;-83
2021/06/24 04:41:58;;;;;;;42.97;10.50;;;;;;;26.42;50.72;99575.53;5044080;28;20045;-75
2021/06/24 04:44:24;;;;;;;139.85;65.75;;;;;;;26.34;52.31;99574.09;5036287;28;20056;-78
2021/06/24 04:46:49;;;;;;;354.73;162.45;;;;;;;26.19;55.18;99583.00;5046472;28;20479;-74
2021/06/24 04:49:17;;;;;;;130.68;54.20;;;;;;;26.12;55.16;99585.97;5040903;28;20103;-75
2021/06/24 04:51:43;;;;;;;135.27;64.20;;;;;;;26.18;54.81;99584.22;5044296;28;20112;-85
2021/06/24 04:54:09;;;;;;;91.35;44.25;;;;;;;26.25;54.70;99586.16;5039165;28;20029;-76
2021/06/24 04:56:34;;;;;;;138.30;63.45;;;;;;;26.20;54.08;99593.22;5045588;28;20077;-80
2021/06/24 04:59:00;;;;;;;57.42;14.07;;;;;;;26.16;53.63;99595.28;5044069;28;20071;-77
2021/06/24 05:01:25;;;;;;;37.42;12.15;;;;;;;26.36;52.90;99585.94;5042939;28;20025;-77
2021/06/24 05:03:51;;;;;;;94.60;39.90;;;;;;;26.39;53.53;99593.63;5033213;28;20090;-76
2021/06/24 05:06:16;;;;;;;51.70;20.88;;;;;;;26.42;52.79;99587.00;5044233;28;20516;-82
2021/06/24 05:08:42;;;;;;;44.42;16.25;;;;;;;26.43;52.14;99587.84;5050801;28;20061;-77
2021/06/24 05:11:08;;;;;;;41.08;14.18;;;;;;;26.33;52.94;99590.47;5042798;28;20407;-79
2021/06/24 05:13:33;;;;;;;43.10;13.60;;;;;;;26.28;53.10;99593.06;5043412;28;20048;-83
2021/06/24 05:16:00;;;;;;;237.13;81.30;;;;;;;26.42;53.71;99594.81;5045716;28;20372;-77
2021/06/24 05:18:26;;;;;;;118.45;42.72;;;;;;;26.48;53.96;99596.72;5042804;28;20041;-77
2021/06/24 05:20:52;;;;;;;75.43;27.77;;;;;;;26.76;52.31;99597.34;5040870;28;20041;-77
2021/06/24 05:23:17;;;;;;;50.03;16.10;;;;;;;26.96;51.86;99598.59;5045786;28;20163;-79
2021/06/24 05:25:44;;;;;;;47.47;13.48;;;;;;;27.03;50.98;99598.44;5045673;28;20475;-81
2021/06/24 05:28:11;;;;;;;29.75;11.23;;;;;;;27.21;51.00;99602.91;5046323;28;20693;-85
2021/06/24 05:30:37;;;;;;;109.05;44.80;;;;;;;27.30;49.99;99597.38;5039617;28;20362;-81
2021/06/24 05:33:05;;;;;;;101.85;27.00;;;;;;;27.40;48.89;99604.91;5044227;28;20040;-75
2021/06/24 05:35:31;;;;;;;82.30;20.13;;;;;;;27.51;49.29;99596.03;5036993;28;20022;-79
2021/06/24 05:37:57;;;;;;;48.03;11.02;;;;;;;27.59;48.55;99596.69;5036501;28;20084;-76
2021/06/24 05:40:23;;;;;;;55.03;14.35;;;;;;;27.53;48.66;99598.44;5038016;28;20033;-79
2021/06/24 05:42:49;;;;;;;47.65;13.10;;;;;;;27.67;48.42;99598.09;5037311;28;20124;-74
2021/06/24 05:45:15;;;;;;;45.75;12.68;;;;;;;27.79;47.97;99604.38;5037919;28;20108;-75
2021/06/24 05:47:41;;;;;;;36.20;11.82;;;;;;;27.89;47.99;99601.25;5040759;28;20124;-74
2021/06/24 05:50:07;;;;;;;37.50;11.27;;;;;;;28.11;48.08;99603.50;5043731;28;20186;-79
2021/06/24 05:52:33;;;;;;;35.20;11.13;;;;;;;28.12;48.13;99608.00;5036816;28;20028;-76
2021/06/24 05:54:59;;;;;;;42.95;11.40;;;;;;;28.24;48.50;99609.34;5048831;28;20419;-76
2021/06/24 05:57:26;;;;;;;44.53;11.32;;;;;;;28.34;47.25;99609.50;5044404;28;20036;-78
2021/06/24 05:59:52;;;;;;;36.70;9.75;;;;;;;28.42;47.98;99608.03;5041703;28;20021;-80
2021/06/24 06:02:17;;;;;;;26.90;9.88;;;;;;;28.53;47.87;99604.81;5041899;28;20052;-75
2021/06/24 06:04:43;;;;;;;44.60;10.25;;;;;;;28.57;47.26;99599.75;5041010;28;20040;-80
2021/06/24 06:07:08;;;;;;;37.60;11.27;;;;;;;28.88;46.51;99598.47;5041807;28;20530;-78
2021/06/24 06:09:35;;;;;;;38.72;11.30;;;;;;;28.91;47.65;99598.34;5054513;28;20511;-77
2021/06/24 06:12:03;;;;;;;32.78;11.55;;;;;;;28.94;46.42;99597.44;5053645;28;20036;-78
2021/06/24 06:14:28;;;;;;;36.72;9.88;;;;;;;29.10;44.55;99596.50;5047416;28;20037;-77
2021/06/24 06:16:54;;;;;;;46.47;10.93;;;;;;;29.17;44.02;99591.81;5033742;28;20025;-75
2021/06/24 06:19:19;;;;;;;39.72;10.48;;;;;;;29.03;45.82;99584.44;5033862;28;20045;-78
2021/06/24 06:21:45;;;;;;;34.97;9.68;;;;;;;29.38;44.77;99587.41;5044837;28;20127;-78
2021/06/24 06:24:10;;;;;;;50.35;12.00;;;;;;;29.43;44.26;99583.97;5037572;28;20041;-77
2021/06/24 06:26:36;;;;;;;29.92;10.82;;;;;;;29.51;45.09;99587.44;5032318;28;20135;-76
2021/06/24 06:29:05;;;;;;;30.92;9.57;;;;;;;29.67;44.52;99575.75;5037680;28;20060;-79
2021/06/24 06:31:32;;;;;;;38.38;8.82;;;;;;;29.82;44.32;99583.88;5052657;28;20028;-76
2021/06/24 06:33:59;;;;;;;37.55;9.05;;;;;;;29.91;43.85;99586.03;5035945;28;20032;-80
2021/06/24 06:36:24;;;;;;;42.60;10.70;;;;;;;30.02;43.30;99591.44;5049772;28;20028;-82
2021/06/24 06:38:50;;;;;;;37.55;10.63;;;;;;;30.05;43.90;99587.63;5047613;28;20120;-88
2021/06/24 06:41:15;;;;;;;39.42;8.55;;;;;;;30.14;43.87;99584.00;5044544;28;20033;-86
2021/06/24 06:43:41;;;;;;;41.05;12.25;;;;;;;30.36;43.31;99581.16;5043565;28;20056;-90
2021/06/24 06:46:06;;;;;;;40.10;9.52;;;;;;;30.46;43.68;99590.66;5049552;28;20402;-81
2021/06/24 06:48:32;;;;;;;32.92;10.43;;;;;;;30.56;42.94;99595.22;5048220;28;20060;-88
2021/06/24 06:50:58;;;;;;;45.63;10.82;;;;;;;30.67;42.73;99595.63;5042044;28;20116;-80
2021/06/24 06:53:23;;;;;;;44.95;10.82;;;;;;;30.79;41.22;99596.03;5049365;28;20052;-79
2021/06/24 06:55:49;;;;;;;34.13;9.85;;;;;;;30.80;40.48;99597.63;5049146;28;20056;-83
2021/06/24 06:58:15;;;;;;;37.35;10.40;;;;;;;30.86;39.17;99598.59;5049843;28;20036;-78
2021/06/24 07:00:41;;;;;;;36.60;11.30;;;;;;;31.01;40.78;99592.25;5041829;28;20090;-78
2021/06/24 07:03:06;;;;;;;33.45;10.73;;;;;;;31.16;38.79;99590.41;5045875;28;20115;-86
2021/06/24 07:05:32;;;;;;;41.53;10.30;;;;;;;31.29;38.81;99593.19;5050286;28;20414;-78
2021/06/24 07:07:58;;;;;;;35.13;9.40;;;;;;;31.35;39.45;99587.59;5049442;28;20043;-74
2021/06/24 07:10:26;;;;;;;42.47;10.63;;;;;;;31.54;38.52;99585.56;5039086;28;20091;-81
2021/06/24 07:12:52;;;;;;;31.98;10.32;;;;;;;31.62;38.80;99591.84;5051308;28;20044;-81
2021/06/24 07:15:18;;;;;;;34.28;8.82;;;;;;;31.56;38.71;99593.75;5052458;28;20024;-80
2021/06/24 07:17:44;;;;;;;48.13;10.13;;;;;;;31.62;38.80;99588.97;5051320;28;20033;-84
2021/06/24 07:20:11;;;;;;;44.25;12.10;;;;;;;31.65;38.39;99585.91;5050994;28;20067;-83
2021/06/24 07:22:38;;;;;;;33.05;9.43;;;;;;;31.76;38.69;99588.34;5052379;28;20037;-74
2021/06/24 07:25:04;;;;;;;32.65;9.15;;;;;;;31.82;38.38;99576.97;5052335;28;20024;-79
2021/06/24 07:27:30;;;;;;;42.50;9.73;;;;;;;31.83;39.29;99583.53;5051008;28;20587;-82
2021/06/24 07:29:56;;;;;;;33.13;10.20;;;;;;;31.85;39.04;99581.78;5052315;28;20025;-75
2021/06/24 07:32:21;;;;;;;29.30;9.93;;;;;;;31.89;38.55;99578.75;5051993;28;20064;-74
2021/06/24 07:34:47;;;;;;;34.58;9.70;;;;;;;31.97;38.76;99582.13;5050973;28;20025;-77
2021/06/24 07:37:12;;;;;;;29.40;8.55;;;;;;;32.11;37.84;99583.56;5050216;28;20547;-81
2021/06/24 07:39:38;;;;;;;38.88;9.40;;;;;;;32.18;37.88;99575.38;5038926;28;20037;-78
2021/06/24 07:42:04;;;;;;;33.50;9.68;;;;;;;32.13;40.30;99581.00;5050753;28;20111;-78
2021/06/24 07:44:32;;;;;;;33.63;9.23;;;;;;;32.21;37.35;99583.06;5042967;28;20036;-83
2021/06/24 07:46:57;;;;;;;41.00;8.50;;;;;;;32.55;36.60;99574.53;5037168;28;20299;-83
2021/06/24 07:49:23;;;;;;;35.83;9.70;;;;;;;32.69;37.97;99572.22;5038786;28;20509;-74
2021/06/24 07:51:48;;;;;;;25.83;8.90;;;;;;;32.79;36.67;99581.72;5039096;28;20470;-79
2021/06/24 07:54:15;;;;;;;30.20;9.07;;;;;;;32.79;36.13;99588.28;5036826;28;20044;-78
2021/06/24 07:56:41;;;;;;;29.52;8.55;;;;;;;32.94;37.60;99576.03;5036455;28;20184;-80
2021/06/24 07:59:11;;;;;;;30.15;8.30;;;;;;;33.06;35.40;99577.91;5036815;28;20065;-76
2021/06/24 08:01:36;;;;;;;;;;;;;;;33.23;35.12;99581.22;5041372;28;20108;-75
2021/06/24 08:04:04;;;;;;;32.03;9.70;;;;;;;33.19;34.60;99583.50;5049050;28;20016;-76
2021/06/24 08:06:29;;;;;;;29.08;8.93;;;;;;;33.08;35.42;99586.13;5049599;28;20400;-82
2021/06/24 08:08:55;;;;;;;33.22;9.15;;;;;;;33.21;35.52;99575.13;5050495;28;20029;-83
2021/06/24 08:11:20;;;;;;;28.30;8.25;;;;;;;33.29;35.48;99578.44;5051561;28;20364;-81
2021/06/24 08:13:46;;;;;;;53.80;8.80;;;;;;;33.41;36.03;99580.31;5050167;28;20040;-76
2021/06/24 08:16:11;;;;;;;38.28;9.10;;;;;;;33.55;34.70;99575.91;5050197;28;20029;-74
2021/06/24 08:18:37;;;;;;;34.83;8.95;;;;;;;33.73;34.01;99572.09;5051172;28;20345;-76
2021/06/24 08:21:04;;;;;;;30.02;7.72;;;;;;;33.78;35.60;99576.41;5051174;28;20090;-75
2021/06/24 08:23:29;;;;;;;23.23;7.38;;;;;;;33.88;35.05;99565.53;5051281;28;20040;-77
2021/06/24 08:25:55;;;;;;;37.22;8.25;;;;;;;33.86;33.02;99573.94;5050780;28;20100;-76
2021/06/24 08:28:21;;;;;;;20.35;6.07;;;;;;;33.96;32.79;99571.75;5051397;28;20552;-77
2021/06/24 08:30:48;;;;;;;30.73;7.22;;;;;;;34.04;32.92;99572.22;5050973;28;20514;-85
2021/06/24 08:33:14;;;;;;;26.02;7.90;;;;;;;34.04;33.31;99572.22;5049655;28;20041;-86
2021/06/24 08:35:40;;;;;;;25.98;8.93;;;;;;;34.02;33.30;99567.69;5049271;28;20025;-86
2021/06/24 08:38:06;;;;;;;22.77;9.00;;;;;;;33.88;33.44;99565.53;5050776;28;20025;-85
2021/06/24 08:40:32;;;;;;;25.05;7.93;;;;;;;34.28;30.95;99575.06;5050578;28;20032;-84
2021/06/24 08:42:58;;;;;;;32.75;7.70;;;;;;;34.14;33.70;99576.63;5050577;28;20037;-76
2021/06/24 08:45:24;;;;;;;32.22;8.32;;;;;;;34.56;32.86;99572.69;5050925;28;20029;-81
2021/06/24 08:47:52;;;;;;;33.90;7.07;;;;;;;34.41;32.03;99566.06;5050621;28;20545;-79
2021/06/24 08:50:18;;;;;;;32.40;7.55;;;;;;;34.55;33.72;99552.88;5050606;28;20020;-78
2021/06/24 08:52:47;;;;;;;17.90;5.68;;;;;;;34.62;32.79;99558.28;5049150;28;20559;-78
2021/06/24 08:55:13;;;;;;;27.02;7.28;;;;;;;34.67;30.85;99559.69;5049259;28;20025;-79
2021/06/24 08:57:39;;;;;;;37.38;8.95;;;;;;;34.86;31.43;99563.94;5049134;28;20037;-78
2021/06/24 09:00:06;;;;;;;37.80;8.55;;;;;;;35.21;31.53;99558.69;5036573;28;20100;-85
2021/06/24 09:02:40;;;;;;;25.75;6.68;;;;;;;35.17;29.45;99564.72;5045907;28;20030;-81
2021/06/24 09:05:06;;;;;;;30.25;6.43;;;;;;;35.16;31.34;99559.44;5049489;28;20036;-77
2021/06/24 09:07:45;;;;;;;28.27;6.88;;;;;;;35.22;30.20;99560.31;5050266;28;20021;-82
2021/06/24 09:10:11;;;;;;;26.92;6.82;;;;;;;35.42;29.47;99551.63;5049015;28;20070;-80
2021/06/24 09:12:51;;;;;;;39.22;7.82;;;;;;;35.48;29.47;99551.69;5048987;28;20037;-84
2021/06/24 09:15:17;;;;;;;27.33;6.50;;;;;;;35.45;29.64;99552.72;5050102;28;20423;-79
2021/06/24 09:17:45;;;;;;;33.28;7.13;;;;;;;35.59;29.20;99550.28;5049153;28;20094;-79
2021/06/24 09:20:23;;;;;;;28.77;7.65;;;;;;;35.54;29.38;99548.91;5050994;28;20141;-87
2021/06/24 09:23:11;;;;;;;40.10;6.45;;;;;;;35.50;29.93;99545.38;5049558;28;20060;-82
2021/06/24 09:25:40;;;;;;;29.77;6.18;;;;;;;35.47;30.71;99531.84;5046689;28;20022;-84
2021/06/24 09:28:05;;;;;;;24.35;6.20;;;;;;;35.70;29.06;99539.56;5050836;28;20036;-83
2021/06/24 09:30:35;;;;;;;37.22;6.97;;;;;;;35.47;30.64;99547.19;5048451;28;20033;-84
2021/06/24 09:33:11;;;;;;;34.83;7.68;;;;;;;35.20;30.48;99545.47;5049416;28;20045;-83
2021/06/24 09:35:38;;;;;;;24.33;7.47;;;;;;;35.47;29.88;99532.66;5049016;28;20029;-86
2021/06/24 09:38:07;;;;;;;18.58;5.97;;;;;;;35.34;29.88;99535.13;5049348;28;20017;-81
2021/06/24 09:40:53;;;;;;;27.23;6.65;;;;;;;35.33;30.24;99528.50;5050253;28;20033;-85
2021/06/24 09:43:27;;;;;;;15.70;6.63;;;;;;;35.31;29.68;99525.31;5035452;28;20028;-86
2021/06/24 09:46:14;;;;;;;31.85;8.27;;;;;;;35.34;30.37;99523.50;5041285;28;20491;-88
2021/06/24 09:48:49;;;;;;;20.50;6.22;;;;;;;35.38;30.64;99521.16;5035081;28;20025;-81
2021/06/24 09:51:21;;;;;;;22.52;6.88;;;;;;;35.40;29.47;99504.81;5041373;28;20554;-80
2021/06/24 09:53:48;;;;;;;27.05;7.03;;;;;;;35.46;29.84;99510.72;5046087;28;20037;-84
2021/06/24 09:56:20;;;;;;;33.92;6.75;;;;;;;35.87;28.20;99501.19;5045712;28;20406;-78
2021/06/24 09:58:47;;;;;;;26.52;6.88;;;;;;;36.13;27.89;99506.25;5049749;28;20036;-82
2021/06/24 10:01:27;;;;;;;27.48;6.78;;;;;;;36.24;28.42;99494.72;5048239;28;20094;-83
2021/06/24 10:03:55;;;;;;;;;;;;;;;36.32;25.68;99502.97;5046827;28;20029;-76
2021/06/24 10:06:20;;;;;;;29.38;6.55;;;;;;;36.74;26.60;99500.69;5045680;28;19928;-77
2021/06/24 10:08:46;;;;;;;23.45;7.00;;;;;;;36.80;25.84;99502.34;5048233;28;20052;-76
2021/06/24 10:11:11;;;;;;;22.40;7.68;;;;;;;36.91;25.25;99507.47;5042402;28;20044;-79
2021/06/24 10:13:38;;;;;;;27.60;6.95;;;;;;;36.99;24.71;99504.88;5043613;28;20154;-78
2021/06/24 10:16:04;;;;;;;28.67;6.20;;;;;;;36.24;25.90;99500.53;5048750;28;20055;-78
2021/06/24 10:18:34;;;;;;;24.92;6.13;;;;;;;36.11;27.34;99497.22;5035357;28;20108;-78
2021/06/24 10:21:01;;;;;;;25.80;8.05;;;;;;;36.50;27.35;99493.06;5041708;28;20049;-78
2021/06/24 10:23:28;;;;;;;30.25;6.63;;;;;;;36.85;25.57;99485.44;5047969;28;20482;-78
2021/06/24 10:25:56;;;;;;;25.88;5.47;;;;;;;37.07;25.44;99494.34;5038602;28;20438;-79
2021/06/24 10:28:22;;;;;;;24.58;6.63;;;;;;;37.02;24.85;99491.38;5049535;28;20033;-79
2021/06/24 10:30:48;;;;;;;17.55;5.15;;;;;;;37.08;25.85;99484.28;5037253;28;20047;-78
2021/06/24 10:33:15;;;;;;;15.25;5.28;;;;;;;37.17;25.49;99482.50;5048031;28;20468;-79
2021/06/24 10:35:49;;;;;;;23.25;6.68;;;;;;;37.30;25.39;99485.75;5049117;28;20126;-79
2021/06/24 10:38:17;;;;;;;18.45;5.57;;;;;;;37.54;24.16;99487.47;5049785;28;20120;-81
2021/06/24 10:40:54;;;;;;;26.05;5.88;;;;;;;37.68;23.63;99476.88;5045819;28;20036;-78
2021/06/24 10:43:20;;;;;;;18.92;5.18;;;;;;;37.64;22.91;99471.31;5046702;28;20087;-79
2021/06/24 10:45:47;;;;;;;28.50;6.30;;;;;;;37.75;23.55;99466.81;5051367;28;20401;-79
2021/06/24 10:48:27;;;;;;;24.80;5.13;;;;;;;37.54;24.37;99467.06;5042644;28;20030;-79
2021/06/24 10:51:07;;;;;;;20.05;6.05;;;;;;;37.83;24.28;99462.09;5050674;28;20475;-79
2021/06/24 10:53:32;;;;;;;22.58;6.65;;;;;;;37.45;24.65;99459.28;5052989;28;20029;-79
2021/06/24 10:55:58;;;;;;;28.02;6.90;;;;;;;37.48;24.56;99451.59;5051317;28;20483;-79
2021/06/24 10:58:27;;;;;;;20.35;4.97;;;;;;;37.93;22.92;99453.88;5051157;28;20478;-79
2021/06/24 11:00:54;;;;;;;29.40;5.95;;;;;;;37.26;24.97;99453.09;5045292;28;20033;-78
2021/06/24 11:03:32;;;;;;;28.70;6.75;;;;;;;37.11;25.45;99458.34;5048145;28;20033;-78
2021/06/24 11:06:10;;;;;;;17.85;4.82;;;;;;;37.84;23.03;99454.94;5042034;28;20029;-79
2021/06/24 11:08:36;;;;;;;21.27;5.80;;;;;;;38.12;21.56;99448.34;5049009;28;20041;-79
2021/06/24 11:11:04;;;;;;;20.27;5.00;;;;;;;38.20;21.94;99458.19;5046353;28;20461;-79
2021/06/24 11:13:39;;;;;;;22.30;6.07;;;;;;;38.02;22.00;99444.91;5051274;28;20021;-79
2021/06/24 11:16:17;;;;;;;23.52;5.78;;;;;;;37.90;22.73;99446.19;5051065;28;20038;-79
2021/06/24 11:18:52;;;;;;;22.25;4.78;;;;;;;38.05;22.85;99434.31;5052441;28;20035;-79
2021/06/24 11:21:22;;;;;;;23.08;5.22;;;;;;;38.48;23.54;99442.03;5049967;28;20053;-79